sensor_id;sensor_type;location;lat;lon;timestamp;pressure;altitude;pressure_sealevel;temperature;humidity
72409;BME280;60402;48.082;11.628;2022-12-20T00:01:39;95970.16;;;-0.80;100.00
72409;BME280;60402;48.082;11.628;2022-12-20T00:04:04;96018.84;;;-0.15;100.00
72409;BME280;60402;48.082;11.628;2022-12-20T00:06:30;95977.47;;;-0.56;100.00
72409;BME280;60402;48.082;11.628;2022-12-20T00:08:57;95983.00;;;-0.56;100.00
72409;BME280;60402;48.082;11.628;2022-12-20T00:11:23;95993.56;;;-0.45;100.00
72409;BME280;60402;48.082;11.628;2022-12-20T00:13:49;95981.75;;;-0.58;100.00
72409;BME280;60402;48.082;11.628;2022-12-20T00:16:20;95927.44;;;-0.91;100.00
72409;BME280;60402;48.082;11.628;2022-12-20T00:18:49;95979.34;;;-0.60;100.00
72409;BME280;60402;48.082;11.628;2022-12-20T00:21:14;95939.44;;;-0.87;100.00
72409;BME280;60402;48.082;11.628;2022-12-20T00:23:40;95921.38;;;-0.96;100.00
72409;BME280;60402;48.082;11.628;2022-12-20T00:26:11;96025.06;;;-0.38;100.00
72409;BME280;60402;48.082;11.628;2022-12-20T00:28:37;96033.47;;;-0.34;100.00
72409;BME280;60402;48.082;11.628;2022-12-20T00:31:04;95981.31;;;-0.60;100.00
72409;BME280;60402;48.082;11.628;2022-12-20T00:33:31;96007.69;;;-0.35;100.00
72409;BME280;60402;48.082;11.628;2022-12-20T00:35:57;95919.22;;;-0.87;100.00
72409;BME280;60402;48.082;11.628;2022-12-20T00:38:23;96008.16;;;-0.33;100.00
72409;BME280;60402;48.082;11.628;2022-12-20T00:41:04;95982.31;;;-0.33;100.00
72409;BME280;60402;48.082;11.628;2022-12-20T00:43:30;95993.13;;;-0.12;100.00
72409;BME280;60402;48.082;11.628;2022-12-20T00:45:56;95985.59;;;-0.12;100.00
72409;BME280;60402;48.082;11.628;2022-12-20T00:48:22;95974.06;;;-0.14;100.00
72409;BME280;60402;48.082;11.628;2022-12-20T00:50:47;95944.34;;;-0.29;100.00
72409;BME280;60402;48.082;11.628;2022-12-20T00:53:12;95976.25;;;-0.04;100.00
72409;BME280;60402;48.082;11.628;2022-12-20T00:55:42;95993.53;;;0.06;100.00
72409;BME280;60402;48.082;11.628;2022-12-20T00:58:07;96011.13;;;0.13;100.00
72409;BME280;60402;48.082;11.628;2022-12-20T01:00:33;96000.97;;;0.02;100.00
72409;BME280;60402;48.082;11.628;2022-12-20T01:02:58;95973.16;;;-0.18;100.00
72409;BME280;60402;48.082;11.628;2022-12-20T01:05:24;95984.88;;;-0.09;100.00
72409;BME280;60402;48.082;11.628;2022-12-20T01:07:49;95992.47;;;-0.06;100.00
72409;BME280;60402;48.082;11.628;2022-12-20T01:10:14;96021.31;;;0.06;100.00
72409;BME280;60402;48.082;11.628;2022-12-20T01:12:40;96013.31;;;0.04;100.00
72409;BME280;60402;48.082;11.628;2022-12-20T01:15:06;95981.56;;;-0.14;100.00
72409;BME280;60402;48.082;11.628;2022-12-20T01:17:32;96034.25;;;0.17;100.00
72409;BME280;60402;48.082;11.628;2022-12-20T01:19:57;95965.19;;;-0.19;100.00
72409;BME280;60402;48.082;11.628;2022-12-20T01:22:22;95937.75;;;-0.40;100.00
72409;BME280;60402;48.082;11.628;2022-12-20T01:24:48;96018.16;;;0.07;100.00
72409;BME280;60402;48.082;11.628;2022-12-20T01:27:13;95977.03;;;-0.22;100.00
72409;BME280;60402;48.082;11.628;2022-12-20T01:29:38;95976.09;;;-0.11;100.00
72409;BME280;60402;48.082;11.628;2022-12-20T01:32:04;95953.06;;;-0.11;100.00
72409;BME280;60402;48.082;11.628;2022-12-20T01:34:29;96014.97;;;0.44;100.00
72409;BME280;60402;48.082;11.628;2022-12-20T01:36:54;95977.88;;;0.17;100.00
72409;BME280;60402;48.082;11.628;2022-12-20T01:39:20;95988.84;;;0.29;100.00
72409;BME280;60402;48.082;11.628;2022-12-20T01:41:46;95953.53;;;0.10;100.00
72409;BME280;60402;48.082;11.628;2022-12-20T01:46:44;95918.22;;;-0.09;100.00
72409;BME280;60402;48.082;11.628;2022-12-20T01:49:30;95953.00;;;0.05;100.00
72409;BME280;60402;48.082;11.628;2022-12-20T01:52:13;95994.84;;;0.31;100.00
72409;BME280;60402;48.082;11.628;2022-12-20T01:54:52;95928.72;;;-0.18;100.00
72409;BME280;60402;48.082;11.628;2022-12-20T01:57:33;96006.41;;;0.33;100.00
72409;BME280;60402;48.082;11.628;2022-12-20T02:00:04;95912.50;;;-0.16;100.00
72409;BME280;60402;48.082;11.628;2022-12-20T02:02:31;95959.44;;;0.09;100.00
72409;BME280;60402;48.082;11.628;2022-12-20T02:04:56;95969.03;;;0.11;100.00
72409;BME280;60402;48.082;11.628;2022-12-20T02:07:27;95890.44;;;-0.28;100.00
72409;BME280;60402;48.082;11.628;2022-12-20T02:09:55;95946.63;;;0.04;100.00
72409;BME280;60402;48.082;11.628;2022-12-20T02:12:24;95911.19;;;-0.22;100.00
72409;BME280;60402;48.082;11.628;2022-12-20T02:15:44;95990.59;;;0.37;100.00
72409;BME280;60402;48.082;11.628;2022-12-20T02:21:07;96001.00;;;0.40;100.00
72409;BME280;60402;48.082;11.628;2022-12-20T02:23:57;95975.69;;;0.26;100.00
72409;BME280;60402;48.082;11.628;2022-12-20T02:26:49;95985.03;;;0.37;100.00
72409;BME280;60402;48.082;11.628;2022-12-20T02:32:30;95968.59;;;0.29;100.00
72409;BME280;60402;48.082;11.628;2022-12-20T02:34:58;95974.97;;;0.29;100.00
72409;BME280;60402;48.082;11.628;2022-12-20T02:37:23;95904.97;;;-0.15;100.00
72409;BME280;60402;48.082;11.628;2022-12-20T02:39:49;95892.13;;;-0.23;100.00
72409;BME280;60402;48.082;11.628;2022-12-20T02:42:17;95995.63;;;0.51;100.00
72409;BME280;60402;48.082;11.628;2022-12-20T02:44:53;95974.97;;;0.29;100.00
72409;BME280;60402;48.082;11.628;2022-12-20T02:48:15;95994.41;;;0.48;100.00
72409;BME280;60402;48.082;11.628;2022-12-20T02:50:48;95985.91;;;0.41;100.00
72409;BME280;60402;48.082;11.628;2022-12-20T02:53:15;95987.38;;;0.35;100.00
72409;BME280;60402;48.082;11.628;2022-12-20T02:55:45;95988.69;;;0.41;100.00
72409;BME280;60402;48.082;11.628;2022-12-20T02:58:32;95987.59;;;0.46;100.00
72409;BME280;60402;48.082;11.628;2022-12-20T03:01:01;95945.91;;;0.27;100.00
72409;BME280;60402;48.082;11.628;2022-12-20T03:03:31;95914.25;;;0.12;100.00
72409;BME280;60402;48.082;11.628;2022-12-20T03:05:56;95979.09;;;0.58;100.00
72409;BME280;60402;48.082;11.628;2022-12-20T03:08:23;95948.47;;;0.35;100.00
72409;BME280;60402;48.082;11.628;2022-12-20T03:10:50;95950.44;;;0.35;100.00
72409;BME280;60402;48.082;11.628;2022-12-20T03:13:16;95893.72;;;-0.03;100.00
72409;BME280;60402;48.082;11.628;2022-12-20T03:15:41;95960.66;;;0.50;100.00
72409;BME280;60402;48.082;11.628;2022-12-20T03:18:07;95856.00;;;-0.23;100.00
72409;BME280;60402;48.082;11.628;2022-12-20T03:20:33;95963.97;;;0.36;100.00
72409;BME280;60402;48.082;11.628;2022-12-20T03:22:59;95909.28;;;0.02;100.00
72409;BME280;60402;48.082;11.628;2022-12-20T03:25:24;95957.03;;;0.27;100.00
72409;BME280;60402;48.082;11.628;2022-12-20T03:27:50;95984.47;;;0.47;100.00
72409;BME280;60402;48.082;11.628;2022-12-20T03:30:15;95954.63;;;0.25;100.00
72409;BME280;60402;48.082;11.628;2022-12-20T03:32:40;95924.94;;;0.10;100.00
72409;BME280;60402;48.082;11.628;2022-12-20T03:35:06;95876.38;;;-0.16;100.00
72409;BME280;60402;48.082;11.628;2022-12-20T03:37:32;95968.59;;;0.48;100.00
72409;BME280;60402;48.082;11.628;2022-12-20T03:39:57;95929.31;;;0.30;100.00
72409;BME280;60402;48.082;11.628;2022-12-20T03:42:22;95883.19;;;0.06;100.00
72409;BME280;60402;48.082;11.628;2022-12-20T03:44:48;95944.38;;;0.48;100.00
72409;BME280;60402;48.082;11.628;2022-12-20T03:47:13;95903.78;;;0.24;100.00
72409;BME280;60402;48.082;11.628;2022-12-20T03:49:38;95906.38;;;0.37;100.00
72409;BME280;60402;48.082;11.628;2022-12-20T03:52:04;95935.28;;;0.74;100.00
72409;BME280;60402;48.082;11.628;2022-12-20T03:54:29;95921.84;;;0.76;100.00
72409;BME280;60402;48.082;11.628;2022-12-20T03:56:54;95880.41;;;0.48;100.00
72409;BME280;60402;48.082;11.628;2022-12-20T03:59:20;95891.72;;;0.59;100.00
72409;BME280;60402;48.082;11.628;2022-12-20T04:01:45;95921.03;;;0.76;100.00
72409;BME280;60402;48.082;11.628;2022-12-20T04:04:13;95928.69;;;0.83;100.00
72409;BME280;60402;48.082;11.628;2022-12-20T04:06:38;95872.00;;;0.45;100.00
72409;BME280;60402;48.082;11.628;2022-12-20T04:09:04;95870.41;;;0.44;100.00
72409;BME280;60402;48.082;11.628;2022-12-20T04:11:29;95866.75;;;0.40;100.00
72409;BME280;60402;48.082;11.628;2022-12-20T04:13:54;95871.56;;;0.43;100.00
72409;BME280;60402;48.082;11.628;2022-12-20T04:16:24;95877.47;;;0.41;100.00
72409;BME280;60402;48.082;11.628;2022-12-20T04:18:49;95934.97;;;0.80;100.00
72409;BME280;60402;48.082;11.628;2022-12-20T04:21:21;95920.72;;;0.58;100.00
72409;BME280;60402;48.082;11.628;2022-12-20T04:23:46;95933.69;;;0.73;100.00
72409;BME280;60402;48.082;11.628;2022-12-20T04:26:12;95934.06;;;0.72;100.00
72409;BME280;60402;48.082;11.628;2022-12-20T04:28:37;95885.41;;;0.39;100.00
72409;BME280;60402;48.082;11.628;2022-12-20T04:31:03;95919.66;;;0.66;100.00
72409;BME280;60402;48.082;11.628;2022-12-20T04:33:30;95922.00;;;0.64;100.00
72409;BME280;60402;48.082;11.628;2022-12-20T04:35:55;95828.41;;;0.07;100.00
72409;BME280;60402;48.082;11.628;2022-12-20T04:38:21;95836.03;;;0.10;100.00
72409;BME280;60402;48.082;11.628;2022-12-20T04:40:51;95869.38;;;0.33;100.00
72409;BME280;60402;48.082;11.628;2022-12-20T04:43:17;95854.25;;;0.30;100.00
72409;BME280;60402;48.082;11.628;2022-12-20T04:45:45;95897.59;;;0.54;100.00
72409;BME280;60402;48.082;11.628;2022-12-20T04:48:11;95884.00;;;0.49;100.00
72409;BME280;60402;48.082;11.628;2022-12-20T04:50:36;95878.59;;;0.37;100.00
72409;BME280;60402;48.082;11.628;2022-12-20T04:53:01;95874.66;;;0.38;100.00
72409;BME280;60402;48.082;11.628;2022-12-20T04:55:45;95888.41;;;0.31;100.00
72409;BME280;60402;48.082;11.628;2022-12-20T04:58:11;95934.69;;;0.62;100.00
72409;BME280;60402;48.082;11.628;2022-12-20T05:00:36;95877.25;;;0.08;100.00
72409;BME280;60402;48.082;11.628;2022-12-20T05:03:02;95931.19;;;0.45;100.00
72409;BME280;60402;48.082;11.628;2022-12-20T05:05:27;95877.66;;;0.29;100.00
72409;BME280;60402;48.082;11.628;2022-12-20T05:07:53;95905.25;;;0.61;100.00
72409;BME280;60402;48.082;11.628;2022-12-20T05:10:19;95865.50;;;0.37;100.00
72409;BME280;60402;48.082;11.628;2022-12-20T05:12:44;95854.91;;;0.43;100.00
72409;BME280;60402;48.082;11.628;2022-12-20T05:15:11;95882.34;;;0.67;100.00
72409;BME280;60402;48.082;11.628;2022-12-20T05:17:36;95866.28;;;0.57;100.00
72409;BME280;60402;48.082;11.628;2022-12-20T05:20:03;95798.97;;;0.25;100.00
72409;BME280;60402;48.082;11.628;2022-12-20T05:22:28;95888.44;;;0.76;100.00
72409;BME280;60402;48.082;11.628;2022-12-20T05:25:12;95894.09;;;0.80;100.00
72409;BME280;60402;48.082;11.628;2022-12-20T05:27:56;95862.41;;;0.65;100.00
72409;BME280;60402;48.082;11.628;2022-12-20T05:30:22;95861.69;;;0.68;100.00
72409;BME280;60402;48.082;11.628;2022-12-20T05:32:47;95871.22;;;0.67;100.00
72409;BME280;60402;48.082;11.628;2022-12-20T05:35:13;95860.00;;;0.64;100.00
72409;BME280;60402;48.082;11.628;2022-12-20T05:37:38;95863.34;;;0.73;100.00
72409;BME280;60402;48.082;11.628;2022-12-20T05:40:05;95856.19;;;0.72;100.00
72409;BME280;60402;48.082;11.628;2022-12-20T05:42:31;95844.13;;;0.64;100.00
72409;BME280;60402;48.082;11.628;2022-12-20T05:44:56;95822.50;;;0.54;100.00
72409;BME280;60402;48.082;11.628;2022-12-20T05:47:21;95838.69;;;0.71;100.00
72409;BME280;60402;48.082;11.628;2022-12-20T05:49:47;95879.22;;;0.95;100.00
72409;BME280;60402;48.082;11.628;2022-12-20T05:52:12;95819.03;;;0.61;100.00
72409;BME280;60402;48.082;11.628;2022-12-20T05:54:37;95827.13;;;0.69;100.00
72409;BME280;60402;48.082;11.628;2022-12-20T05:57:03;95789.84;;;0.47;100.00
72409;BME280;60402;48.082;11.628;2022-12-20T05:59:28;95847.69;;;0.88;100.00
72409;BME280;60402;48.082;11.628;2022-12-20T06:01:53;95826.94;;;0.82;100.00
72409;BME280;60402;48.082;11.628;2022-12-20T06:04:19;95786.78;;;0.56;100.00
72409;BME280;60402;48.082;11.628;2022-12-20T06:06:44;95848.63;;;0.95;100.00
72409;BME280;60402;48.082;11.628;2022-12-20T06:09:10;95860.94;;;0.94;100.00
72409;BME280;60402;48.082;11.628;2022-12-20T06:11:36;95806.75;;;0.62;100.00
72409;BME280;60402;48.082;11.628;2022-12-20T06:14:01;95814.16;;;0.54;100.00
72409;BME280;60402;48.082;11.628;2022-12-20T06:16:26;95858.09;;;0.91;100.00
72409;BME280;60402;48.082;11.628;2022-12-20T06:18:52;95819.25;;;0.75;100.00
72409;BME280;60402;48.082;11.628;2022-12-20T06:21:18;95835.66;;;0.80;100.00
72409;BME280;60402;48.082;11.628;2022-12-20T06:23:43;95858.88;;;0.91;100.00
72409;BME280;60402;48.082;11.628;2022-12-20T06:26:09;95863.16;;;0.85;100.00
72409;BME280;60402;48.082;11.628;2022-12-20T06:28:35;95858.09;;;0.91;100.00
72409;BME280;60402;48.082;11.628;2022-12-20T06:31:07;95831.31;;;0.83;100.00
72409;BME280;60402;48.082;11.628;2022-12-20T06:33:33;95836.63;;;0.91;100.00
72409;BME280;60402;48.082;11.628;2022-12-20T06:35:58;95830.69;;;0.93;100.00
72409;BME280;60402;48.082;11.628;2022-12-20T06:38:24;95843.16;;;1.02;100.00
72409;BME280;60402;48.082;11.628;2022-12-20T06:40:49;95811.06;;;0.82;100.00
72409;BME280;60402;48.082;11.628;2022-12-20T06:43:15;95858.72;;;1.07;100.00
72409;BME280;60402;48.082;11.628;2022-12-20T06:45:40;95859.91;;;1.06;100.00
72409;BME280;60402;48.082;11.628;2022-12-20T06:48:05;95838.69;;;0.94;100.00
72409;BME280;60402;48.082;11.628;2022-12-20T06:50:31;95857.94;;;1.07;100.00
72409;BME280;60402;48.082;11.628;2022-12-20T06:52:56;95855.16;;;1.07;100.00
72409;BME280;60402;48.082;11.628;2022-12-20T06:55:21;95852.75;;;1.05;100.00
72409;BME280;60402;48.082;11.628;2022-12-20T06:57:47;95844.34;;;1.01;100.00
72409;BME280;60402;48.082;11.628;2022-12-20T07:00:12;95835.50;;;0.96;100.00
72409;BME280;60402;48.082;11.628;2022-12-20T07:02:38;95831.94;;;0.95;100.00
72409;BME280;60402;48.082;11.628;2022-12-20T07:05:03;95849.72;;;1.14;100.00
72409;BME280;60402;48.082;11.628;2022-12-20T07:07:29;95840.59;;;1.17;100.00
72409;BME280;60402;48.082;11.628;2022-12-20T07:09:54;95842.63;;;1.20;100.00
72409;BME280;60402;48.082;11.628;2022-12-20T07:12:21;95817.47;;;1.13;100.00
72409;BME280;60402;48.082;11.628;2022-12-20T07:14:47;95808.63;;;1.07;100.00
72409;BME280;60402;48.082;11.628;2022-12-20T07:17:13;95840.22;;;1.18;100.00
72409;BME280;60402;48.082;11.628;2022-12-20T07:19:38;95812.22;;;1.08;100.00
72409;BME280;60402;48.082;11.628;2022-12-20T07:22:04;95818.72;;;1.15;100.00
72409;BME280;60402;48.082;11.628;2022-12-20T07:24:30;95820.84;;;1.25;100.00
72409;BME280;60402;48.082;11.628;2022-12-20T07:26:55;95828.13;;;1.34;100.00
72409;BME280;60402;48.082;11.628;2022-12-20T07:29:20;95836.56;;;1.41;100.00
72409;BME280;60402;48.082;11.628;2022-12-20T07:31:46;95825.06;;;1.42;100.00
72409;BME280;60402;48.082;11.628;2022-12-20T07:34:11;95840.38;;;1.56;100.00
72409;BME280;60402;48.082;11.628;2022-12-20T07:36:36;95830.69;;;1.46;100.00
72409;BME280;60402;48.082;11.628;2022-12-20T07:39:02;95804.59;;;1.31;100.00
72409;BME280;60402;48.082;11.628;2022-12-20T07:41:27;95837.13;;;1.53;100.00
72409;BME280;60402;48.082;11.628;2022-12-20T07:43:53;95808.25;;;1.35;100.00
72409;BME280;60402;48.082;11.628;2022-12-20T07:46:18;95827.94;;;1.49;100.00
72409;BME280;60402;48.082;11.628;2022-12-20T07:48:43;95827.19;;;1.52;100.00
72409;BME280;60402;48.082;11.628;2022-12-20T07:51:13;95844.13;;;1.70;100.00
72409;BME280;60402;48.082;11.628;2022-12-20T07:53:51;95839.31;;;1.67;100.00
72409;BME280;60402;48.082;11.628;2022-12-20T07:56:19;95850.84;;;1.66;100.00
72409;BME280;60402;48.082;11.628;2022-12-20T07:58:46;95847.66;;;1.67;100.00
72409;BME280;60402;48.082;11.628;2022-12-20T08:01:13;95867.34;;;1.82;100.00
72409;BME280;60402;48.082;11.628;2022-12-20T08:03:43;95823.69;;;1.59;100.00
72409;BME280;60402;48.082;11.628;2022-12-20T08:06:08;95855.06;;;1.86;100.00
72409;BME280;60402;48.082;11.628;2022-12-20T08:08:37;95859.09;;;1.89;100.00
72409;BME280;60402;48.082;11.628;2022-12-20T08:11:05;95867.59;;;1.99;100.00
72409;BME280;60402;48.082;11.628;2022-12-20T08:13:32;95858.31;;;1.92;100.00
72409;BME280;60402;48.082;11.628;2022-12-20T08:15:58;95874.06;;;2.07;100.00
72409;BME280;60402;48.082;11.628;2022-12-20T08:18:24;95836.66;;;1.78;100.00
72409;BME280;60402;48.082;11.628;2022-12-20T08:20:49;95826.22;;;1.71;100.00
72409;BME280;60402;48.082;11.628;2022-12-20T08:23:15;95830.09;;;1.93;100.00
72409;BME280;60402;48.082;11.628;2022-12-20T08:25:40;95846.19;;;2.07;100.00
72409;BME280;60402;48.082;11.628;2022-12-20T08:28:05;95848.59;;;2.09;100.00
72409;BME280;60402;48.082;11.628;2022-12-20T08:30:31;95833.16;;;2.18;100.00
72409;BME280;60402;48.082;11.628;2022-12-20T08:32:56;95833.69;;;2.31;100.00
72409;BME280;60402;48.082;11.628;2022-12-20T08:35:22;95832.06;;;2.30;100.00
72409;BME280;60402;48.082;11.628;2022-12-20T08:37:50;95840.59;;;2.44;100.00
72409;BME280;60402;48.082;11.628;2022-12-20T08:40:16;95808.59;;;2.31;100.00
72409;BME280;60402;48.082;11.628;2022-12-20T08:42:43;95820.13;;;2.29;100.00
72409;BME280;60402;48.082;11.628;2022-12-20T08:45:08;95846.22;;;2.48;100.00
72409;BME280;60402;48.082;11.628;2022-12-20T08:47:34;95842.69;;;2.54;100.00
72409;BME280;60402;48.082;11.628;2022-12-20T08:49:59;95853.88;;;2.58;100.00
72409;BME280;60402;48.082;11.628;2022-12-20T08:52:25;95808.47;;;2.20;100.00
72409;BME280;60402;48.082;11.628;2022-12-20T08:54:52;95833.06;;;2.48;100.00
72409;BME280;60402;48.082;11.628;2022-12-20T08:57:17;95851.56;;;2.64;100.00
72409;BME280;60402;48.082;11.628;2022-12-20T08:59:42;95823.13;;;2.51;100.00
72409;BME280;60402;48.082;11.628;2022-12-20T09:02:07;95830.44;;;2.66;100.00
72409;BME280;60402;48.082;11.628;2022-12-20T09:04:33;95835.50;;;2.53;100.00
72409;BME280;60402;48.082;11.628;2022-12-20T09:06:58;95853.22;;;2.72;100.00
72409;BME280;60402;48.082;11.628;2022-12-20T09:09:23;95820.78;;;2.56;100.00
72409;BME280;60402;48.082;11.628;2022-12-20T09:11:49;95857.19;;;2.71;100.00
72409;BME280;60402;48.082;11.628;2022-12-20T09:14:14;95840.41;;;2.64;100.00
72409;BME280;60402;48.082;11.628;2022-12-20T09:16:39;95808.03;;;2.55;100.00
72409;BME280;60402;48.082;11.628;2022-12-20T09:19:05;95818.53;;;2.69;100.00
72409;BME280;60402;48.082;11.628;2022-12-20T09:21:31;95762.00;;;2.35;100.00
72409;BME280;60402;48.082;11.628;2022-12-20T09:23:56;95833.09;;;2.96;100.00
72409;BME280;60402;48.082;11.628;2022-12-20T09:26:22;95771.00;;;2.62;100.00
72409;BME280;60402;48.082;11.628;2022-12-20T09:28:48;95829.25;;;3.15;100.00
72409;BME280;60402;48.082;11.628;2022-12-20T09:31:17;95801.31;;;3.15;100.00
72409;BME280;60402;48.082;11.628;2022-12-20T09:33:42;95806.13;;;3.18;100.00
72409;BME280;60402;48.082;11.628;2022-12-20T09:36:13;95762.13;;;3.01;100.00
72409;BME280;60402;48.082;11.628;2022-12-20T09:38:39;95781.00;;;3.18;100.00
72409;BME280;60402;48.082;11.628;2022-12-20T09:41:06;95821.13;;;3.54;100.00
72409;BME280;60402;48.082;11.628;2022-12-20T09:43:32;95820.34;;;3.61;100.00
72409;BME280;60402;48.082;11.628;2022-12-20T09:46:00;95782.78;;;3.51;100.00
72409;BME280;60402;48.082;11.628;2022-12-20T09:48:34;95802.47;;;3.73;100.00
72409;BME280;60402;48.082;11.628;2022-12-20T09:54:05;95801.25;;;3.74;100.00
72409;BME280;60402;48.082;11.628;2022-12-20T09:56:36;95796.44;;;3.71;100.00
72409;BME280;60402;48.082;11.628;2022-12-20T09:59:10;95800.50;;;3.77;100.00
72409;BME280;60402;48.082;11.628;2022-12-20T10:01:37;95792.50;;;3.79;100.00
72409;BME280;60402;48.082;11.628;2022-12-20T10:04:06;95791.31;;;3.83;100.00
72409;BME280;60402;48.082;11.628;2022-12-20T10:14:59;95778.19;;;3.91;100.00
72409;BME280;60402;48.082;11.628;2022-12-20T10:17:57;95760.66;;;4.05;100.00
72409;BME280;60402;48.082;11.628;2022-12-20T10:23:27;95746.31;;;4.24;99.04
72409;BME280;60402;48.082;11.628;2022-12-20T10:25:57;95699.91;;;4.02;98.86
72409;BME280;60402;48.082;11.628;2022-12-20T10:28:34;95760.75;;;4.62;98.27
72409;BME280;60402;48.082;11.628;2022-12-20T10:31:06;95765.53;;;4.83;98.24
72409;BME280;60402;48.082;11.628;2022-12-20T10:33:32;95743.13;;;4.69;96.47
72409;BME280;60402;48.082;11.628;2022-12-20T10:36:29;95761.94;;;4.82;97.01
72409;BME280;60402;48.082;11.628;2022-12-20T10:38:57;95757.13;;;4.83;97.00
72409;BME280;60402;48.082;11.628;2022-12-20T10:41:28;95760.75;;;4.94;97.42
72409;BME280;60402;48.082;11.628;2022-12-20T10:43:58;95750.72;;;4.82;97.60
72409;BME280;60402;48.082;11.628;2022-12-20T10:46:37;95727.13;;;4.73;96.36
72409;BME280;60402;48.082;11.628;2022-12-20T10:49:30;95732.31;;;4.88;96.56
72409;BME280;60402;48.082;11.628;2022-12-20T10:52:02;95724.34;;;4.94;95.81
72409;BME280;60402;48.082;11.628;2022-12-20T10:54:42;95728.31;;;5.04;95.71
72409;BME280;60402;48.082;11.628;2022-12-20T10:57:27;95695.94;;;4.81;96.08
72409;BME280;60402;48.082;11.628;2022-12-20T10:59:59;95619.22;;;4.36;96.32
72409;BME280;60402;48.082;11.628;2022-12-20T11:07:37;95699.94;;;4.91;97.03
72409;BME280;60402;48.082;11.628;2022-12-20T11:10:20;95636.00;;;4.54;97.30
72409;BME280;60402;48.082;11.628;2022-12-20T11:12:58;95655.16;;;4.70;97.54
72409;BME280;60402;48.082;11.628;2022-12-20T11:15:31;95677.13;;;4.82;97.81
72409;BME280;60402;48.082;11.628;2022-12-20T11:32:10;95638.09;;;5.52;93.50
72409;BME280;60402;48.082;11.628;2022-12-20T11:35:08;95678.75;;;5.96;94.22
72409;BME280;60402;48.082;11.628;2022-12-20T11:37:47;95657.50;;;5.98;94.19
72409;BME280;60402;48.082;11.628;2022-12-20T11:40:30;95657.03;;;6.07;93.63
72409;BME280;60402;48.082;11.628;2022-12-20T11:48:24;95654.28;;;6.00;93.13
72409;BME280;60402;48.082;11.628;2022-12-20T11:51:23;95650.31;;;5.94;92.78
72409;BME280;60402;48.082;11.628;2022-12-20T11:53:59;95549.72;;;5.29;93.00
72409;BME280;60402;48.082;11.628;2022-12-20T11:56:33;95610.69;;;5.81;92.90
72409;BME280;60402;48.082;11.628;2022-12-20T12:01:38;95618.66;;;5.89;91.93
72409;BME280;60402;48.082;11.628;2022-12-20T12:06:52;95607.13;;;5.77;93.98
72409;BME280;60402;48.082;11.628;2022-12-20T12:09:24;95599.06;;;5.82;94.44
72409;BME280;60402;48.082;11.628;2022-12-20T12:12:03;95569.19;;;5.54;94.45
72409;BME280;60402;48.082;11.628;2022-12-20T12:17:12;95605.69;;;6.13;94.02
72409;BME280;60402;48.082;11.628;2022-12-20T12:19:44;95593.59;;;6.20;93.40
72409;BME280;60402;48.082;11.628;2022-12-20T12:22:18;95601.91;;;6.34;93.28
72409;BME280;60402;48.082;11.628;2022-12-20T12:24:51;95602.78;;;6.28;92.98
72409;BME280;60402;48.082;11.628;2022-12-20T12:27:25;95505.84;;;5.68;93.29
72409;BME280;60402;48.082;11.628;2022-12-20T12:29:53;95599.16;;;6.27;93.73
72409;BME280;60402;48.082;11.628;2022-12-20T12:32:26;95578.81;;;6.16;93.54
72409;BME280;60402;48.082;11.628;2022-12-20T12:40:46;95593.34;;;6.49;93.98
72409;BME280;60402;48.082;11.628;2022-12-20T12:46:07;95590.00;;;6.20;93.47
72409;BME280;60402;48.082;11.628;2022-12-20T12:51:25;95579.66;;;6.13;94.92
72409;BME280;60402;48.082;11.628;2022-12-20T12:54:11;95538.47;;;6.03;94.60
72409;BME280;60402;48.082;11.628;2022-12-20T12:56:43;95577.16;;;6.26;93.34
72409;BME280;60402;48.082;11.628;2022-12-20T13:04:29;95572.06;;;6.10;94.03
72409;BME280;60402;48.082;11.628;2022-12-20T13:07:00;95520.69;;;5.64;95.01
72409;BME280;60402;48.082;11.628;2022-12-20T13:11:56;95572.44;;;6.12;94.92
72409;BME280;60402;48.082;11.628;2022-12-20T13:16:51;95564.38;;;6.18;94.24
72409;BME280;60402;48.082;11.628;2022-12-20T13:19:36;95569.22;;;6.13;94.42
72409;BME280;60402;48.082;11.628;2022-12-20T13:27:29;95574.84;;;6.10;95.26
72409;BME280;60402;48.082;11.628;2022-12-20T13:32:53;95567.69;;;6.05;94.70
72409;BME280;60402;48.082;11.628;2022-12-20T13:38:00;95576.53;;;6.00;94.96
72409;BME280;60402;48.082;11.628;2022-12-20T13:40:44;95524.41;;;5.51;95.19
72409;BME280;60402;48.082;11.628;2022-12-20T13:43:19;95563.91;;;5.71;96.39
72409;BME280;60402;48.082;11.628;2022-12-20T13:48:51;95565.88;;;5.74;96.02
72409;BME280;60402;48.082;11.628;2022-12-20T13:51:20;95566.31;;;5.69;96.49
72409;BME280;60402;48.082;11.628;2022-12-20T13:53:57;95521.72;;;5.29;96.21
72409;BME280;60402;48.082;11.628;2022-12-20T13:58:53;95536.09;;;5.35;96.15
72409;BME280;60402;48.082;11.628;2022-12-20T14:01:21;95550.31;;;5.66;95.28
72409;BME280;60402;48.082;11.628;2022-12-20T14:03:47;95525.63;;;5.46;95.33
72409;BME280;60402;48.082;11.628;2022-12-20T14:06:14;95502.38;;;5.49;93.58
72409;BME280;60402;48.082;11.628;2022-12-20T14:08:45;95534.31;;;5.66;93.88
72409;BME280;60402;48.082;11.628;2022-12-20T14:11:17;95549.03;;;5.74;95.30
72409;BME280;60402;48.082;11.628;2022-12-20T14:13:51;95524.88;;;5.38;96.25
72409;BME280;60402;48.082;11.628;2022-12-20T14:16:18;95551.22;;;5.52;96.20
72409;BME280;60402;48.082;11.628;2022-12-20T14:18:59;95524.88;;;5.38;96.64
72409;BME280;60402;48.082;11.628;2022-12-20T14:21:26;95463.75;;;5.23;95.56
72409;BME280;60402;48.082;11.628;2022-12-20T14:23:55;95490.00;;;5.47;94.56
72409;BME280;60402;48.082;11.628;2022-12-20T14:26:24;95481.84;;;5.63;94.13
72409;BME280;60402;48.082;11.628;2022-12-20T14:28:53;95502.25;;;5.63;94.30
72409;BME280;60402;48.082;11.628;2022-12-20T14:33:48;95509.53;;;5.54;94.53
72409;BME280;60402;48.082;11.628;2022-12-20T14:38:41;95444.16;;;5.16;93.85